Terminal Aerodrome Forecast
Issued by NWS

Home | Current Version | Previous Version | Text Only | Print | Product List | Glossary On
Versions: 1 2 3 4 5 6 7 8 9 10 11 12
000
FTUS42 KILM 201700
TAFCRE
TAF
KCRE 201725Z 2018/2118 05008KT 4SM BR BKN006 BKN035 OVC050
      TEMPO 2018/2022 3SM -RA BR SCT005 OVC030
     FM211000 02006KT 4SM BR SCT006 SCT015 BKN060
     FM211500 04008KT P6SM SCT040 BKN060=

USA.gov is the U.S. government's official web portal to all federal, state and local government web resources and services.